sensor_id;sensor_type;location;lat;lon;timestamp;P1;durP1;ratioP1;P2;durP2;ratioP2
8159;SDS011;27404;52.398;9.646;2023-07-31T00:01:42;4.20;;;2.27;;
8159;SDS011;27404;52.398;9.646;2023-07-31T00:04:08;3.57;;;2.30;;
8159;SDS011;27404;52.398;9.646;2023-07-31T00:06:33;3.30;;;2.27;;
8159;SDS011;27404;52.398;9.646;2023-07-31T00:08:59;4.83;;;2.20;;
8159;SDS011;27404;52.398;9.646;2023-07-31T00:11:24;7.43;;;2.50;;
8159;SDS011;27404;52.398;9.646;2023-07-31T00:13:50;4.90;;;2.50;;
8159;SDS011;27404;52.398;9.646;2023-07-31T00:16:15;4.93;;;2.33;;
8159;SDS011;27404;52.398;9.646;2023-07-31T00:18:41;3.60;;;2.33;;
8159;SDS011;27404;52.398;9.646;2023-07-31T00:21:06;3.13;;;1.97;;
8159;SDS011;27404;52.398;9.646;2023-07-31T00:23:32;3.67;;;2.27;;
8159;SDS011;27404;52.398;9.646;2023-07-31T00:25:57;3.70;;;2.10;;
8159;SDS011;27404;52.398;9.646;2023-07-31T00:28:23;3.77;;;2.30;;
8159;SDS011;27404;52.398;9.646;2023-07-31T00:30:48;3.70;;;1.93;;
8159;SDS011;27404;52.398;9.646;2023-07-31T00:33:13;4.97;;;2.10;;
8159;SDS011;27404;52.398;9.646;2023-07-31T00:35:39;3.73;;;2.33;;
8159;SDS011;27404;52.398;9.646;2023-07-31T00:38:04;3.97;;;2.30;;
8159;SDS011;27404;52.398;9.646;2023-07-31T00:40:34;4.13;;;2.47;;
8159;SDS011;27404;52.398;9.646;2023-07-31T00:43:00;4.70;;;2.20;;
8159;SDS011;27404;52.398;9.646;2023-07-31T00:45:26;4.27;;;2.13;;
8159;SDS011;27404;52.398;9.646;2023-07-31T00:47:52;4.80;;;2.30;;
8159;SDS011;27404;52.398;9.646;2023-07-31T00:50:18;6.17;;;2.33;;
8159;SDS011;27404;52.398;9.646;2023-07-31T00:52:44;4.70;;;2.23;;
8159;SDS011;27404;52.398;9.646;2023-07-31T00:55:09;3.77;;;2.00;;
8159;SDS011;27404;52.398;9.646;2023-07-31T00:57:35;4.03;;;2.20;;
8159;SDS011;27404;52.398;9.646;2023-07-31T01:00:03;3.17;;;2.00;;
8159;SDS011;27404;52.398;9.646;2023-07-31T01:02:28;3.20;;;2.27;;
8159;SDS011;27404;52.398;9.646;2023-07-31T01:04:54;4.00;;;2.27;;
8159;SDS011;27404;52.398;9.646;2023-07-31T01:07:25;3.40;;;2.20;;
8159;SDS011;27404;52.398;9.646;2023-07-31T01:10:02;2.60;;;1.67;;
8159;SDS011;27404;52.398;9.646;2023-07-31T01:12:33;3.93;;;2.20;;
8159;SDS011;27404;52.398;9.646;2023-07-31T01:15:06;3.50;;;1.70;;
8159;SDS011;27404;52.398;9.646;2023-07-31T01:17:36;2.43;;;1.80;;
8159;SDS011;27404;52.398;9.646;2023-07-31T01:20:03;5.50;;;1.77;;
8159;SDS011;27404;52.398;9.646;2023-07-31T01:28:31;3.70;;;1.60;;
8159;SDS011;27404;52.398;9.646;2023-07-31T01:31:18;2.33;;;1.40;;
8159;SDS011;27404;52.398;9.646;2023-07-31T01:33:48;3.40;;;1.53;;
8159;SDS011;27404;52.398;9.646;2023-07-31T01:36:14;2.93;;;1.50;;
8159;SDS011;27404;52.398;9.646;2023-07-31T01:38:40;2.93;;;1.50;;
8159;SDS011;27404;52.398;9.646;2023-07-31T01:41:05;2.10;;;1.40;;
8159;SDS011;27404;52.398;9.646;2023-07-31T01:43:31;3.03;;;1.70;;
8159;SDS011;27404;52.398;9.646;2023-07-31T01:45:56;6.13;;;1.50;;
8159;SDS011;27404;52.398;9.646;2023-07-31T01:48:21;4.30;;;1.53;;
8159;SDS011;27404;52.398;9.646;2023-07-31T01:50:47;1.67;;;1.50;;
8159;SDS011;27404;52.398;9.646;2023-07-31T01:53:12;2.30;;;1.50;;
8159;SDS011;27404;52.398;9.646;2023-07-31T01:55:38;4.07;;;1.40;;
8159;SDS011;27404;52.398;9.646;2023-07-31T01:58:04;2.13;;;1.40;;
8159;SDS011;27404;52.398;9.646;2023-07-31T02:00:29;3.27;;;1.30;;
8159;SDS011;27404;52.398;9.646;2023-07-31T02:02:54;2.00;;;1.50;;
8159;SDS011;27404;52.398;9.646;2023-07-31T02:05:20;4.33;;;1.33;;
8159;SDS011;27404;52.398;9.646;2023-07-31T02:07:45;1.77;;;1.40;;
8159;SDS011;27404;52.398;9.646;2023-07-31T02:10:11;3.80;;;1.27;;
8159;SDS011;27404;52.398;9.646;2023-07-31T02:12:36;3.23;;;1.40;;
8159;SDS011;27404;52.398;9.646;2023-07-31T02:15:02;1.77;;;1.13;;
8159;SDS011;27404;52.398;9.646;2023-07-31T02:17:27;3.23;;;1.30;;
8159;SDS011;27404;52.398;9.646;2023-07-31T02:19:54;2.03;;;1.20;;
8159;SDS011;27404;52.398;9.646;2023-07-31T02:22:19;2.53;;;1.27;;
8159;SDS011;27404;52.398;9.646;2023-07-31T02:24:45;2.13;;;1.00;;
8159;SDS011;27404;52.398;9.646;2023-07-31T02:27:10;2.77;;;1.13;;
8159;SDS011;27404;52.398;9.646;2023-07-31T02:29:36;3.33;;;1.20;;
8159;SDS011;27404;52.398;9.646;2023-07-31T02:32:01;2.87;;;1.30;;
8159;SDS011;27404;52.398;9.646;2023-07-31T02:34:27;1.70;;;1.07;;
8159;SDS011;27404;52.398;9.646;2023-07-31T02:36:52;3.33;;;1.03;;
8159;SDS011;27404;52.398;9.646;2023-07-31T02:39:17;1.87;;;1.10;;
8159;SDS011;27404;52.398;9.646;2023-07-31T02:41:43;3.50;;;1.03;;
8159;SDS011;27404;52.398;9.646;2023-07-31T02:44:08;2.13;;;0.97;;
8159;SDS011;27404;52.398;9.646;2023-07-31T02:46:35;2.50;;;1.13;;
8159;SDS011;27404;52.398;9.646;2023-07-31T02:49:01;2.70;;;1.30;;
8159;SDS011;27404;52.398;9.646;2023-07-31T02:51:26;1.47;;;1.03;;
8159;SDS011;27404;52.398;9.646;2023-07-31T02:53:51;1.40;;;0.97;;
8159;SDS011;27404;52.398;9.646;2023-07-31T02:56:17;3.87;;;1.40;;
8159;SDS011;27404;52.398;9.646;2023-07-31T02:58:42;3.97;;;1.10;;
8159;SDS011;27404;52.398;9.646;2023-07-31T03:01:08;2.13;;;1.27;;
8159;SDS011;27404;52.398;9.646;2023-07-31T03:03:33;3.10;;;1.00;;
8159;SDS011;27404;52.398;9.646;2023-07-31T03:05:59;2.80;;;1.20;;
8159;SDS011;27404;52.398;9.646;2023-07-31T03:08:24;2.23;;;1.03;;
8159;SDS011;27404;52.398;9.646;2023-07-31T03:10:50;1.40;;;1.17;;
8159;SDS011;27404;52.398;9.646;2023-07-31T03:13:15;1.47;;;1.00;;
8159;SDS011;27404;52.398;9.646;2023-07-31T03:15:43;2.73;;;1.10;;
8159;SDS011;27404;52.398;9.646;2023-07-31T03:18:09;1.33;;;1.03;;
8159;SDS011;27404;52.398;9.646;2023-07-31T03:20:34;1.87;;;1.20;;
8159;SDS011;27404;52.398;9.646;2023-07-31T03:23:00;2.67;;;1.57;;
8159;SDS011;27404;52.398;9.646;2023-07-31T03:25:25;1.87;;;1.43;;
8159;SDS011;27404;52.398;9.646;2023-07-31T03:27:51;1.53;;;1.20;;
8159;SDS011;27404;52.398;9.646;2023-07-31T03:30:16;3.00;;;1.37;;
8159;SDS011;27404;52.398;9.646;2023-07-31T03:32:42;1.93;;;1.30;;
8159;SDS011;27404;52.398;9.646;2023-07-31T03:35:07;2.37;;;1.50;;
8159;SDS011;27404;52.398;9.646;2023-07-31T03:37:33;1.77;;;1.30;;
8159;SDS011;27404;52.398;9.646;2023-07-31T03:39:58;1.57;;;1.30;;
8159;SDS011;27404;52.398;9.646;2023-07-31T03:42:24;2.40;;;1.30;;
8159;SDS011;27404;52.398;9.646;2023-07-31T03:44:49;2.20;;;1.60;;
8159;SDS011;27404;52.398;9.646;2023-07-31T03:47:15;1.87;;;1.40;;
8159;SDS011;27404;52.398;9.646;2023-07-31T03:49:40;1.60;;;1.27;;
8159;SDS011;27404;52.398;9.646;2023-07-31T03:52:06;3.83;;;1.70;;
8159;SDS011;27404;52.398;9.646;2023-07-31T03:54:32;3.73;;;1.80;;
8159;SDS011;27404;52.398;9.646;2023-07-31T03:56:57;1.47;;;1.20;;
8159;SDS011;27404;52.398;9.646;2023-07-31T03:59:23;3.47;;;1.33;;
8159;SDS011;27404;52.398;9.646;2023-07-31T04:01:48;2.37;;;1.40;;
8159;SDS011;27404;52.398;9.646;2023-07-31T04:04:14;1.87;;;1.40;;
8159;SDS011;27404;52.398;9.646;2023-07-31T04:06:39;2.27;;;1.43;;
8159;SDS011;27404;52.398;9.646;2023-07-31T04:09:05;1.80;;;1.10;;
8159;SDS011;27404;52.398;9.646;2023-07-31T04:11:30;2.20;;;1.37;;
8159;SDS011;27404;52.398;9.646;2023-07-31T04:13:56;2.47;;;1.10;;
8159;SDS011;27404;52.398;9.646;2023-07-31T04:16:21;1.83;;;1.30;;
8159;SDS011;27404;52.398;9.646;2023-07-31T04:18:47;2.53;;;1.17;;
8159;SDS011;27404;52.398;9.646;2023-07-31T04:21:12;1.73;;;1.30;;
8159;SDS011;27404;52.398;9.646;2023-07-31T04:23:37;3.53;;;1.70;;
8159;SDS011;27404;52.398;9.646;2023-07-31T04:26:03;2.00;;;1.40;;
8159;SDS011;27404;52.398;9.646;2023-07-31T04:28:28;3.10;;;1.33;;
8159;SDS011;27404;52.398;9.646;2023-07-31T04:30:56;4.00;;;1.20;;
8159;SDS011;27404;52.398;9.646;2023-07-31T04:33:22;3.03;;;1.30;;
8159;SDS011;27404;52.398;9.646;2023-07-31T04:35:53;1.90;;;1.30;;
8159;SDS011;27404;52.398;9.646;2023-07-31T04:38:20;3.07;;;1.40;;
8159;SDS011;27404;52.398;9.646;2023-07-31T04:40:46;3.33;;;1.30;;
8159;SDS011;27404;52.398;9.646;2023-07-31T04:43:12;3.33;;;1.30;;
8159;SDS011;27404;52.398;9.646;2023-07-31T04:45:37;3.87;;;1.30;;
8159;SDS011;27404;52.398;9.646;2023-07-31T04:48:03;1.97;;;1.33;;
8159;SDS011;27404;52.398;9.646;2023-07-31T04:50:29;2.90;;;1.30;;
8159;SDS011;27404;52.398;9.646;2023-07-31T04:52:56;3.20;;;1.37;;
8159;SDS011;27404;52.398;9.646;2023-07-31T04:55:21;1.80;;;1.10;;
8159;SDS011;27404;52.398;9.646;2023-07-31T04:57:47;2.20;;;1.23;;
8159;SDS011;27404;52.398;9.646;2023-07-31T05:00:12;3.63;;;1.00;;
8159;SDS011;27404;52.398;9.646;2023-07-31T05:02:38;2.20;;;0.90;;
8159;SDS011;27404;52.398;9.646;2023-07-31T05:05:03;3.17;;;0.97;;
8159;SDS011;27404;52.398;9.646;2023-07-31T05:07:29;1.20;;;1.00;;
8159;SDS011;27404;52.398;9.646;2023-07-31T05:09:55;2.20;;;1.00;;
8159;SDS011;27404;52.398;9.646;2023-07-31T05:12:20;1.97;;;0.90;;
8159;SDS011;27404;52.398;9.646;2023-07-31T05:14:46;1.60;;;1.10;;
8159;SDS011;27404;52.398;9.646;2023-07-31T05:17:11;3.40;;;0.93;;
8159;SDS011;27404;52.398;9.646;2023-07-31T05:19:37;1.67;;;0.80;;
8159;SDS011;27404;52.398;9.646;2023-07-31T05:22:02;2.03;;;0.70;;
8159;SDS011;27404;52.398;9.646;2023-07-31T05:24:28;1.47;;;0.80;;
8159;SDS011;27404;52.398;9.646;2023-07-31T05:26:53;1.47;;;0.67;;
8159;SDS011;27404;52.398;9.646;2023-07-31T05:29:19;1.03;;;0.70;;
8159;SDS011;27404;52.398;9.646;2023-07-31T05:31:44;2.33;;;0.93;;
8159;SDS011;27404;52.398;9.646;2023-07-31T05:34:10;2.63;;;0.90;;
8159;SDS011;27404;52.398;9.646;2023-07-31T05:36:35;2.73;;;1.20;;
8159;SDS011;27404;52.398;9.646;2023-07-31T05:39:00;2.03;;;1.30;;
8159;SDS011;27404;52.398;9.646;2023-07-31T05:41:31;2.23;;;1.37;;
8159;SDS011;27404;52.398;9.646;2023-07-31T05:43:56;3.37;;;2.40;;
8159;SDS011;27404;52.398;9.646;2023-07-31T05:46:22;6.80;;;3.43;;
8159;SDS011;27404;52.398;9.646;2023-07-31T05:48:47;7.63;;;4.00;;
8159;SDS011;27404;52.398;9.646;2023-07-31T05:51:13;7.27;;;4.70;;
8159;SDS011;27404;52.398;9.646;2023-07-31T05:53:38;8.47;;;4.40;;
8159;SDS011;27404;52.398;9.646;2023-07-31T05:56:05;8.70;;;5.13;;
8159;SDS011;27404;52.398;9.646;2023-07-31T05:58:31;9.17;;;6.03;;
8159;SDS011;27404;52.398;9.646;2023-07-31T06:00:57;11.63;;;6.53;;
8159;SDS011;27404;52.398;9.646;2023-07-31T06:03:22;10.13;;;6.40;;
8159;SDS011;27404;52.398;9.646;2023-07-31T06:05:48;9.03;;;6.60;;
8159;SDS011;27404;52.398;9.646;2023-07-31T06:08:13;9.67;;;6.83;;
8159;SDS011;27404;52.398;9.646;2023-07-31T06:10:39;11.40;;;7.23;;
8159;SDS011;27404;52.398;9.646;2023-07-31T06:13:04;11.63;;;7.33;;
8159;SDS011;27404;52.398;9.646;2023-07-31T06:15:30;11.77;;;7.50;;
8159;SDS011;27404;52.398;9.646;2023-07-31T06:17:55;13.53;;;7.90;;
8159;SDS011;27404;52.398;9.646;2023-07-31T06:20:21;10.27;;;7.30;;
8159;SDS011;27404;52.398;9.646;2023-07-31T06:22:46;9.80;;;7.27;;
8159;SDS011;27404;52.398;9.646;2023-07-31T06:25:12;12.53;;;7.30;;
8159;SDS011;27404;52.398;9.646;2023-07-31T06:27:37;10.90;;;7.67;;
8159;SDS011;27404;52.398;9.646;2023-07-31T06:30:03;11.63;;;8.00;;
8159;SDS011;27404;52.398;9.646;2023-07-31T06:32:30;13.10;;;7.27;;
8159;SDS011;27404;52.398;9.646;2023-07-31T06:34:55;15.10;;;7.90;;
8159;SDS011;27404;52.398;9.646;2023-07-31T06:37:21;14.33;;;8.50;;
8159;SDS011;27404;52.398;9.646;2023-07-31T06:39:46;10.90;;;7.50;;
8159;SDS011;27404;52.398;9.646;2023-07-31T06:42:11;9.57;;;7.37;;
8159;SDS011;27404;52.398;9.646;2023-07-31T06:44:37;11.90;;;7.87;;
8159;SDS011;27404;52.398;9.646;2023-07-31T06:47:02;13.53;;;7.57;;
8159;SDS011;27404;52.398;9.646;2023-07-31T06:49:28;13.40;;;8.33;;
8159;SDS011;27404;52.398;9.646;2023-07-31T06:51:53;14.10;;;8.23;;
8159;SDS011;27404;52.398;9.646;2023-07-31T06:54:19;10.90;;;7.97;;
8159;SDS011;27404;52.398;9.646;2023-07-31T06:56:44;15.17;;;9.03;;
8159;SDS011;27404;52.398;9.646;2023-07-31T06:59:09;12.83;;;8.43;;
8159;SDS011;27404;52.398;9.646;2023-07-31T07:01:35;18.57;;;9.13;;
8159;SDS011;27404;52.398;9.646;2023-07-31T07:04:01;14.43;;;8.97;;
8159;SDS011;27404;52.398;9.646;2023-07-31T07:06:26;14.73;;;8.40;;
8159;SDS011;27404;52.398;9.646;2023-07-31T07:08:52;16.80;;;9.77;;
8159;SDS011;27404;52.398;9.646;2023-07-31T07:11:17;15.43;;;9.90;;
8159;SDS011;27404;52.398;9.646;2023-07-31T07:13:43;17.70;;;9.73;;
8159;SDS011;27404;52.398;9.646;2023-07-31T07:16:08;15.57;;;9.40;;
8159;SDS011;27404;52.398;9.646;2023-07-31T07:18:35;14.40;;;9.27;;
8159;SDS011;27404;52.398;9.646;2023-07-31T07:21:00;14.50;;;9.10;;
8159;SDS011;27404;52.398;9.646;2023-07-31T07:23:27;15.17;;;10.23;;
8159;SDS011;27404;52.398;9.646;2023-07-31T07:25:52;16.63;;;10.30;;
8159;SDS011;27404;52.398;9.646;2023-07-31T07:28:18;15.90;;;10.67;;
8159;SDS011;27404;52.398;9.646;2023-07-31T07:30:43;16.07;;;9.60;;
8159;SDS011;27404;52.398;9.646;2023-07-31T07:33:09;17.30;;;10.53;;
8159;SDS011;27404;52.398;9.646;2023-07-31T07:35:34;22.57;;;10.03;;
8159;SDS011;27404;52.398;9.646;2023-07-31T07:38:03;14.87;;;8.80;;
8159;SDS011;27404;52.398;9.646;2023-07-31T07:40:29;13.60;;;8.83;;
8159;SDS011;27404;52.398;9.646;2023-07-31T07:42:55;14.40;;;8.50;;
8159;SDS011;27404;52.398;9.646;2023-07-31T07:45:20;15.53;;;7.73;;
8159;SDS011;27404;52.398;9.646;2023-07-31T07:47:45;14.43;;;8.10;;
8159;SDS011;27404;52.398;9.646;2023-07-31T07:50:11;15.93;;;8.33;;
8159;SDS011;27404;52.398;9.646;2023-07-31T07:52:37;13.10;;;8.13;;
8159;SDS011;27404;52.398;9.646;2023-07-31T07:55:02;12.20;;;8.50;;
8159;SDS011;27404;52.398;9.646;2023-07-31T07:57:28;15.03;;;7.57;;
8159;SDS011;27404;52.398;9.646;2023-07-31T07:59:54;14.00;;;7.17;;
8159;SDS011;27404;52.398;9.646;2023-07-31T08:02:19;10.23;;;6.30;;
8159;SDS011;27404;52.398;9.646;2023-07-31T08:04:45;6.73;;;5.53;;
8159;SDS011;27404;52.398;9.646;2023-07-31T08:07:10;15.17;;;6.37;;
8159;SDS011;27404;52.398;9.646;2023-07-31T08:09:37;12.00;;;6.43;;
8159;SDS011;27404;52.398;9.646;2023-07-31T08:12:03;16.03;;;6.97;;
8159;SDS011;27404;52.398;9.646;2023-07-31T08:14:29;12.07;;;6.67;;
8159;SDS011;27404;52.398;9.646;2023-07-31T08:16:54;9.53;;;4.93;;
8159;SDS011;27404;52.398;9.646;2023-07-31T08:19:20;14.00;;;6.20;;
8159;SDS011;27404;52.398;9.646;2023-07-31T08:21:46;11.53;;;5.63;;
8159;SDS011;27404;52.398;9.646;2023-07-31T08:24:11;10.80;;;5.77;;
8159;SDS011;27404;52.398;9.646;2023-07-31T08:26:37;11.20;;;5.07;;
8159;SDS011;27404;52.398;9.646;2023-07-31T08:29:02;10.47;;;5.30;;
8159;SDS011;27404;52.398;9.646;2023-07-31T08:31:28;8.87;;;4.47;;
8159;SDS011;27404;52.398;9.646;2023-07-31T08:33:54;9.70;;;5.00;;
8159;SDS011;27404;52.398;9.646;2023-07-31T08:36:21;9.40;;;5.67;;
8159;SDS011;27404;52.398;9.646;2023-07-31T08:38:46;10.27;;;5.03;;
8159;SDS011;27404;52.398;9.646;2023-07-31T08:41:12;11.07;;;5.23;;
8159;SDS011;27404;52.398;9.646;2023-07-31T08:43:38;9.30;;;5.37;;
8159;SDS011;27404;52.398;9.646;2023-07-31T08:46:04;11.63;;;4.97;;
8159;SDS011;27404;52.398;9.646;2023-07-31T08:48:30;8.60;;;5.10;;
8159;SDS011;27404;52.398;9.646;2023-07-31T08:50:56;10.53;;;5.40;;
8159;SDS011;27404;52.398;9.646;2023-07-31T08:53:22;10.27;;;5.07;;
8159;SDS011;27404;52.398;9.646;2023-07-31T08:55:48;10.47;;;4.53;;
8159;SDS011;27404;52.398;9.646;2023-07-31T08:58:14;7.97;;;4.10;;
8159;SDS011;27404;52.398;9.646;2023-07-31T09:00:41;5.93;;;4.00;;
8159;SDS011;27404;52.398;9.646;2023-07-31T09:03:09;7.80;;;5.00;;
8159;SDS011;27404;52.398;9.646;2023-07-31T09:05:42;7.23;;;4.20;;
8159;SDS011;27404;52.398;9.646;2023-07-31T09:08:09;7.63;;;4.77;;
8159;SDS011;27404;52.398;9.646;2023-07-31T09:10:40;8.17;;;4.47;;
8159;SDS011;27404;52.398;9.646;2023-07-31T09:13:11;10.27;;;4.63;;
8159;SDS011;27404;52.398;9.646;2023-07-31T09:15:37;6.77;;;4.47;;
8159;SDS011;27404;52.398;9.646;2023-07-31T09:18:05;7.40;;;4.43;;
8159;SDS011;27404;52.398;9.646;2023-07-31T09:20:31;7.60;;;3.80;;
8159;SDS011;27404;52.398;9.646;2023-07-31T09:23:07;5.60;;;3.30;;
8159;SDS011;27404;52.398;9.646;2023-07-31T09:25:34;6.70;;;3.63;;
8159;SDS011;27404;52.398;9.646;2023-07-31T09:28:02;6.57;;;3.93;;
8159;SDS011;27404;52.398;9.646;2023-07-31T09:30:30;8.73;;;3.40;;
8159;SDS011;27404;52.398;9.646;2023-07-31T09:33:03;6.47;;;3.27;;
8159;SDS011;27404;52.398;9.646;2023-07-31T09:35:35;5.53;;;3.77;;
8159;SDS011;27404;52.398;9.646;2023-07-31T09:43:01;5.47;;;3.10;;
8159;SDS011;27404;52.398;9.646;2023-07-31T09:45:27;4.27;;;3.00;;
8159;SDS011;27404;52.398;9.646;2023-07-31T09:47:55;4.83;;;2.73;;
8159;SDS011;27404;52.398;9.646;2023-07-31T09:50:23;4.73;;;2.77;;
8159;SDS011;27404;52.398;9.646;2023-07-31T09:52:50;4.27;;;2.50;;
8159;SDS011;27404;52.398;9.646;2023-07-31T09:55:17;4.13;;;2.13;;
8159;SDS011;27404;52.398;9.646;2023-07-31T09:57:44;2.93;;;1.80;;
8159;SDS011;27404;52.398;9.646;2023-07-31T10:00:12;3.87;;;2.03;;
8159;SDS011;27404;52.398;9.646;2023-07-31T10:02:40;4.00;;;2.23;;
8159;SDS011;27404;52.398;9.646;2023-07-31T10:05:06;2.70;;;2.17;;
8159;SDS011;27404;52.398;9.646;2023-07-31T10:07:39;3.43;;;1.90;;
8159;SDS011;27404;52.398;9.646;2023-07-31T10:10:08;3.20;;;1.90;;
8159;SDS011;27404;52.398;9.646;2023-07-31T10:12:34;2.53;;;1.70;;
8159;SDS011;27404;52.398;9.646;2023-07-31T10:15:01;2.23;;;1.60;;
8159;SDS011;27404;52.398;9.646;2023-07-31T10:17:27;2.90;;;1.67;;
8159;SDS011;27404;52.398;9.646;2023-07-31T10:19:55;2.83;;;1.67;;
8159;SDS011;27404;52.398;9.646;2023-07-31T10:22:23;2.47;;;1.53;;
8159;SDS011;27404;52.398;9.646;2023-07-31T10:24:49;3.33;;;2.03;;
8159;SDS011;27404;52.398;9.646;2023-07-31T10:27:17;2.83;;;1.73;;
8159;SDS011;27404;52.398;9.646;2023-07-31T10:29:43;2.27;;;1.33;;
8159;SDS011;27404;52.398;9.646;2023-07-31T10:32:12;3.70;;;1.60;;
8159;SDS011;27404;52.398;9.646;2023-07-31T10:34:40;2.07;;;1.57;;
8159;SDS011;27404;52.398;9.646;2023-07-31T10:37:22;3.30;;;1.77;;
8159;SDS011;27404;52.398;9.646;2023-07-31T10:39:59;2.53;;;1.63;;
8159;SDS011;27404;52.398;9.646;2023-07-31T10:42:36;2.97;;;1.40;;
8159;SDS011;27404;52.398;9.646;2023-07-31T10:45:09;2.03;;;1.27;;
8159;SDS011;27404;52.398;9.646;2023-07-31T10:47:38;2.73;;;1.53;;
8159;SDS011;27404;52.398;9.646;2023-07-31T10:50:15;3.27;;;1.70;;
8159;SDS011;27404;52.398;9.646;2023-07-31T10:52:49;2.30;;;1.80;;
8159;SDS011;27404;52.398;9.646;2023-07-31T11:00:56;2.80;;;1.80;;
8159;SDS011;27404;52.398;9.646;2023-07-31T11:03:25;2.20;;;1.53;;
8159;SDS011;27404;52.398;9.646;2023-07-31T11:05:52;2.83;;;1.50;;
8159;SDS011;27404;52.398;9.646;2023-07-31T11:08:28;4.37;;;1.53;;
8159;SDS011;27404;52.398;9.646;2023-07-31T11:13:31;2.30;;;1.60;;
8159;SDS011;27404;52.398;9.646;2023-07-31T11:16:09;2.50;;;1.83;;
8159;SDS011;27404;52.398;9.646;2023-07-31T11:18:38;1.73;;;1.43;;
8159;SDS011;27404;52.398;9.646;2023-07-31T11:21:05;3.23;;;2.00;;
8159;SDS011;27404;52.398;9.646;2023-07-31T11:23:31;2.10;;;1.33;;
8159;SDS011;27404;52.398;9.646;2023-07-31T11:26:00;1.67;;;1.30;;
8159;SDS011;27404;52.398;9.646;2023-07-31T11:28:30;2.33;;;1.50;;
8159;SDS011;27404;52.398;9.646;2023-07-31T11:30:57;3.37;;;1.90;;
8159;SDS011;27404;52.398;9.646;2023-07-31T11:33:23;3.33;;;1.60;;
8159;SDS011;27404;52.398;9.646;2023-07-31T11:35:48;2.23;;;1.60;;
8159;SDS011;27404;52.398;9.646;2023-07-31T11:38:24;2.90;;;1.80;;
8159;SDS011;27404;52.398;9.646;2023-07-31T11:40:51;2.73;;;1.43;;
8159;SDS011;27404;52.398;9.646;2023-07-31T11:43:18;2.83;;;1.70;;
8159;SDS011;27404;52.398;9.646;2023-07-31T11:45:45;2.13;;;1.30;;
8159;SDS011;27404;52.398;9.646;2023-07-31T11:48:18;2.20;;;1.43;;
8159;SDS011;27404;52.398;9.646;2023-07-31T11:50:48;4.13;;;2.03;;
8159;SDS011;27404;52.398;9.646;2023-07-31T11:53:15;4.40;;;2.33;;
8159;SDS011;27404;52.398;9.646;2023-07-31T11:55:44;1.90;;;1.40;;
8159;SDS011;27404;52.398;9.646;2023-07-31T11:58:10;2.43;;;1.53;;
8159;SDS011;27404;52.398;9.646;2023-07-31T12:00:36;2.50;;;1.60;;
8159;SDS011;27404;52.398;9.646;2023-07-31T12:03:02;1.73;;;1.30;;
8159;SDS011;27404;52.398;9.646;2023-07-31T12:05:28;2.70;;;1.37;;
8159;SDS011;27404;52.398;9.646;2023-07-31T12:07:54;3.60;;;1.20;;
8159;SDS011;27404;52.398;9.646;2023-07-31T12:10:27;2.00;;;1.37;;
8159;SDS011;27404;52.398;9.646;2023-07-31T12:13:01;2.30;;;1.50;;
8159;SDS011;27404;52.398;9.646;2023-07-31T12:15:39;3.43;;;1.40;;
8159;SDS011;27404;52.398;9.646;2023-07-31T12:18:13;1.10;;;0.80;;
8159;SDS011;27404;52.398;9.646;2023-07-31T12:20:43;1.93;;;1.03;;
8159;SDS011;27404;52.398;9.646;2023-07-31T12:23:16;1.83;;;1.03;;
8159;SDS011;27404;52.398;9.646;2023-07-31T12:25:44;2.40;;;1.10;;
8159;SDS011;27404;52.398;9.646;2023-07-31T12:28:09;6.33;;;1.30;;
8159;SDS011;27404;52.398;9.646;2023-07-31T12:30:39;1.27;;;0.90;;
8159;SDS011;27404;52.398;9.646;2023-07-31T12:33:14;1.70;;;0.90;;
8159;SDS011;27404;52.398;9.646;2023-07-31T12:35:46;1.13;;;0.70;;
8159;SDS011;27404;52.398;9.646;2023-07-31T12:38:12;1.00;;;0.70;;
8159;SDS011;27404;52.398;9.646;2023-07-31T12:40:39;1.40;;;0.70;;
8159;SDS011;27404;52.398;9.646;2023-07-31T12:43:06;1.57;;;0.97;;
8159;SDS011;27404;52.398;9.646;2023-07-31T12:45:32;0.90;;;0.70;;
8159;SDS011;27404;52.398;9.646;2023-07-31T12:47:58;2.50;;;1.00;;
8159;SDS011;27404;52.398;9.646;2023-07-31T12:50:24;1.10;;;0.80;;
8159;SDS011;27404;52.398;9.646;2023-07-31T12:52:50;1.60;;;0.80;;
8159;SDS011;27404;52.398;9.646;2023-07-31T12:55:17;1.30;;;0.80;;
8159;SDS011;27404;52.398;9.646;2023-07-31T12:57:43;1.27;;;0.70;;
8159;SDS011;27404;52.398;9.646;2023-07-31T13:00:09;1.47;;;1.23;;
8159;SDS011;27404;52.398;9.646;2023-07-31T13:02:36;0.93;;;0.70;;
8159;SDS011;27404;52.398;9.646;2023-07-31T13:05:01;2.30;;;0.80;;
8159;SDS011;27404;52.398;9.646;2023-07-31T13:07:27;1.00;;;0.90;;
8159;SDS011;27404;52.398;9.646;2023-07-31T13:09:53;2.37;;;0.90;;
8159;SDS011;27404;52.398;9.646;2023-07-31T13:12:18;2.00;;;0.70;;
8159;SDS011;27404;52.398;9.646;2023-07-31T13:14:43;1.33;;;0.80;;
8159;SDS011;27404;52.398;9.646;2023-07-31T13:17:09;1.30;;;0.90;;
8159;SDS011;27404;52.398;9.646;2023-07-31T13:19:34;1.33;;;0.90;;
8159;SDS011;27404;52.398;9.646;2023-07-31T13:22:00;2.43;;;1.00;;
8159;SDS011;27404;52.398;9.646;2023-07-31T13:24:25;2.33;;;0.83;;
8159;SDS011;27404;52.398;9.646;2023-07-31T13:26:51;1.10;;;0.80;;
8159;SDS011;27404;52.398;9.646;2023-07-31T13:29:16;1.03;;;0.80;;
8159;SDS011;27404;52.398;9.646;2023-07-31T13:31:42;1.70;;;0.70;;
8159;SDS011;27404;52.398;9.646;2023-07-31T13:34:07;2.37;;;0.80;;
8159;SDS011;27404;52.398;9.646;2023-07-31T13:36:33;1.73;;;0.97;;
8159;SDS011;27404;52.398;9.646;2023-07-31T13:38:59;2.77;;;0.73;;
8159;SDS011;27404;52.398;9.646;2023-07-31T13:41:25;1.20;;;0.70;;
8159;SDS011;27404;52.398;9.646;2023-07-31T13:43:51;2.00;;;0.70;;
8159;SDS011;27404;52.398;9.646;2023-07-31T13:46:17;1.17;;;0.80;;
8159;SDS011;27404;52.398;9.646;2023-07-31T13:48:42;1.20;;;0.70;;
8159;SDS011;27404;52.398;9.646;2023-07-31T13:51:07;1.20;;;0.70;;
8159;SDS011;27404;52.398;9.646;2023-07-31T13:53:33;1.20;;;0.70;;
8159;SDS011;27404;52.398;9.646;2023-07-31T13:55:58;1.13;;;0.73;;
8159;SDS011;27404;52.398;9.646;2023-07-31T13:58:24;6.63;;;1.13;;
8159;SDS011;27404;52.398;9.646;2023-07-31T14:00:49;1.30;;;0.90;;
8159;SDS011;27404;52.398;9.646;2023-07-31T14:03:15;2.93;;;0.90;;
8159;SDS011;27404;52.398;9.646;2023-07-31T14:05:40;1.43;;;0.70;;
8159;SDS011;27404;52.398;9.646;2023-07-31T14:08:06;2.40;;;0.80;;
8159;SDS011;27404;52.398;9.646;2023-07-31T14:10:32;2.93;;;0.80;;
8159;SDS011;27404;52.398;9.646;2023-07-31T14:12:57;1.33;;;0.80;;
8159;SDS011;27404;52.398;9.646;2023-07-31T14:15:22;3.20;;;0.70;;
8159;SDS011;27404;52.398;9.646;2023-07-31T14:17:48;2.53;;;0.73;;
8159;SDS011;27404;52.398;9.646;2023-07-31T14:20:13;0.80;;;0.60;;
8159;SDS011;27404;52.398;9.646;2023-07-31T14:22:39;1.60;;;0.90;;
8159;SDS011;27404;52.398;9.646;2023-07-31T14:25:04;1.80;;;0.80;;
8159;SDS011;27404;52.398;9.646;2023-07-31T14:27:30;1.50;;;0.90;;
8159;SDS011;27404;52.398;9.646;2023-07-31T14:29:56;1.03;;;0.80;;
8159;SDS011;27404;52.398;9.646;2023-07-31T14:32:22;1.07;;;0.90;;
8159;SDS011;27404;52.398;9.646;2023-07-31T14:34:48;1.77;;;1.40;;
8159;SDS011;27404;52.398;9.646;2023-07-31T14:37:14;1.47;;;1.30;;
8159;SDS011;27404;52.398;9.646;2023-07-31T14:39:39;2.40;;;1.60;;
8159;SDS011;27404;52.398;9.646;2023-07-31T14:42:05;2.13;;;1.60;;
8159;SDS011;27404;52.398;9.646;2023-07-31T14:44:30;1.97;;;1.70;;
8159;SDS011;27404;52.398;9.646;2023-07-31T14:46:56;2.00;;;1.70;;
8159;SDS011;27404;52.398;9.646;2023-07-31T14:49:21;1.93;;;1.73;;
8159;SDS011;27404;52.398;9.646;2023-07-31T14:51:47;2.43;;;1.97;;
8159;SDS011;27404;52.398;9.646;2023-07-31T14:54:12;5.17;;;2.33;;
8159;SDS011;27404;52.398;9.646;2023-07-31T14:56:37;3.63;;;2.73;;
8159;SDS011;27404;52.398;9.646;2023-07-31T14:59:03;3.80;;;2.10;;
8159;SDS011;27404;52.398;9.646;2023-07-31T15:01:28;2.80;;;2.23;;
8159;SDS011;27404;52.398;9.646;2023-07-31T15:03:54;2.43;;;2.23;;
8159;SDS011;27404;52.398;9.646;2023-07-31T15:06:19;3.10;;;2.07;;
8159;SDS011;27404;52.398;9.646;2023-07-31T15:08:45;5.80;;;2.30;;
8159;SDS011;27404;52.398;9.646;2023-07-31T15:11:10;6.27;;;2.50;;
8159;SDS011;27404;52.398;9.646;2023-07-31T15:13:35;3.63;;;2.60;;